createdAt,value
2023-01-29T00:01:16.205Z,3.2125000000000004
2023-01-29T00:04:17.086Z,2.8875
2023-01-29T00:07:16.663Z,2.725
2023-01-29T00:11:16.817Z,2.7
2023-01-29T00:14:16.674Z,2.825
2023-01-29T00:17:16.736Z,2.6375
2023-01-29T00:21:18.333Z,3.675
2023-01-29T00:24:16.954Z,2.85
2023-01-29T00:27:16.818Z,2.5625
2023-01-29T00:31:19.761Z,3.6125
2023-01-29T00:34:16.767Z,2.375
2023-01-29T00:37:16.523Z,2.6625
2023-01-29T00:51:15.939Z,3.5250000000000004
2023-01-29T00:54:16.264Z,3.2125000000000004
2023-01-29T00:57:16.286Z,3.575
2023-01-29T01:01:16.579Z,3.625
2023-01-29T01:04:16.914Z,3.0374999999999996
2023-01-29T01:07:16.815Z,2.6375
2023-01-29T01:11:15.907Z,4.699999999999999
2023-01-29T01:14:16.095Z,2.65
2023-01-29T01:17:16.537Z,4.075
2023-01-29T01:21:16.100Z,3.925
2023-01-29T01:24:16.752Z,3.4499999999999997
2023-01-29T01:27:17.875Z,3.4125
2023-01-29T01:31:16.498Z,3.3875
2023-01-29T01:34:16.737Z,2.8875
2023-01-29T01:37:16.727Z,2.6375
2023-01-29T01:41:19.541Z,3.6
2023-01-29T01:44:52.895Z,2.7125000000000004
2023-01-29T01:47:19.571Z,3.1875
2023-01-29T01:51:16.613Z,3.475
2023-01-29T01:54:22.494Z,3.4
2023-01-29T01:57:20.811Z,3.0875000000000004
2023-01-29T02:01:17.527Z,3.1125000000000003
2023-01-29T02:11:17.711Z,2.9875
2023-01-29T02:14:17.095Z,2.375
2023-01-29T02:17:19.220Z,2.6
2023-01-29T02:21:33.765Z,2.625
2023-01-29T02:24:41.944Z,2.3875
2023-01-29T02:27:19.881Z,2.0375
2023-01-29T02:31:27.556Z,2.6375
2023-01-29T02:34:26.782Z,2.4749999999999996
2023-01-29T02:37:17.894Z,2.4
2023-01-29T02:41:25.232Z,2.4499999999999997
2023-01-29T02:44:23.773Z,1.975
2023-01-29T02:47:21.572Z,2.325
2023-01-29T02:51:22.404Z,2.925
2023-01-29T02:54:21.345Z,4.2875
2023-01-29T02:57:20.771Z,2.3875
2023-01-29T03:01:22.644Z,2.525
2023-01-29T03:04:21.969Z,2.4875
2023-01-29T03:07:47.980Z,2.9250000000000003
2023-01-29T03:11:17.351Z,2.35
2023-01-29T03:14:23.578Z,2.6375
2023-01-29T03:17:17.566Z,2.9375
2023-01-29T03:22:24.540Z,2.9125
2023-01-29T03:32:23.237Z,2.4625
2023-01-29T03:34:22.698Z,2.4625
2023-01-29T03:37:21.079Z,2.0374999999999996
2023-01-29T03:41:24.407Z,2.5375
2023-01-29T03:44:24.670Z,2.0375
2023-01-29T03:47:20.123Z,2.8625
2023-01-29T03:51:24.163Z,2.7375
2023-01-29T03:54:25.052Z,3.175
2023-01-29T03:57:25.394Z,2.6375
2023-01-29T04:01:21.112Z,2.8875
2023-01-29T04:04:20.790Z,2.7
2023-01-29T04:07:19.695Z,1.9625
2023-01-29T04:11:19.837Z,1.925
2023-01-29T04:14:17.479Z,2.3
2023-01-29T04:17:21.117Z,2.2
2023-01-29T04:21:16.434Z,2.85
2023-01-29T04:24:16.914Z,2.3375
2023-01-29T04:27:26.240Z,2.85
2023-01-29T04:31:17.317Z,2.4875
2023-01-29T04:34:24.305Z,2.7375
2023-01-29T04:37:26.473Z,2.625
2023-01-29T04:41:21.792Z,2.5375
2023-01-29T04:44:20.982Z,2.45
2023-01-29T04:47:25.259Z,3.0625
2023-01-29T04:51:23.548Z,3.3375000000000004
2023-01-29T04:54:26.554Z,2.8375
2023-01-29T04:57:21.866Z,2.5125
2023-01-29T05:01:18.859Z,2.8499999999999996
2023-01-29T05:04:19.764Z,2.0625
2023-01-29T05:07:18.124Z,2.3625
2023-01-29T05:11:17.533Z,3.125
2023-01-29T05:14:19.042Z,2.175
2023-01-29T05:17:19.251Z,2.025
2023-01-29T05:21:16.127Z,2.9749999999999996
2023-01-29T05:24:20.811Z,2
2023-01-29T05:28:21.435Z,2.3375
2023-01-29T05:31:16.288Z,3.15
2023-01-29T05:34:16.948Z,2.5125
2023-01-29T05:37:16.605Z,2.7
2023-01-29T05:41:17.361Z,3.0375
2023-01-29T05:44:16.283Z,2.3
2023-01-29T05:47:19.048Z,2.1
2023-01-29T05:51:16.370Z,2.7875
2023-01-29T05:54:16.684Z,2.1375
2023-01-29T05:57:16.577Z,2.4875
2023-01-29T06:01:18.232Z,2.5
2023-01-29T06:04:16.729Z,2.0875
2023-01-29T06:07:16.871Z,2.1875
2023-01-29T06:11:17.168Z,2.7874999999999996
2023-01-29T06:14:16.507Z,2.525
2023-01-29T06:17:16.437Z,2.3499999999999996
2023-01-29T06:21:17.383Z,1.9625000000000001
2023-01-29T06:24:16.667Z,2.4875000000000003
2023-01-29T06:27:16.594Z,2.1999999999999997
2023-01-29T06:31:33.002Z,2.475
2023-01-29T06:34:16.428Z,2.6
2023-01-29T06:37:16.906Z,2.125
2023-01-29T06:41:17.733Z,2.35
2023-01-29T06:44:16.341Z,2.3499999999999996
2023-01-29T06:47:16.260Z,2.4375
2023-01-29T06:51:16.409Z,3.35
2023-01-29T06:54:16.295Z,3.4125
2023-01-29T06:57:16.301Z,2.2874999999999996
2023-01-29T07:01:34.660Z,2.7375
2023-01-29T07:04:16.628Z,2.45
2023-01-29T07:07:18.229Z,2.7625
2023-01-29T07:11:15.773Z,3.65
2023-01-29T07:14:19.719Z,4.1125
2023-01-29T07:17:17.687Z,3.9000000000000004
2023-01-29T07:21:16.544Z,3.3375
2023-01-29T07:24:16.890Z,3.0625
2023-01-29T07:27:17.848Z,3.2375
2023-01-29T07:31:16.300Z,3.25
2023-01-29T07:34:16.843Z,7.112499999999999
2023-01-29T07:37:16.360Z,7.637499999999999
2023-01-29T07:41:16.507Z,6.8999999999999995
2023-01-29T07:44:16.359Z,4.875
2023-01-29T07:47:17.436Z,3.9
2023-01-29T07:51:18.237Z,4.9625
2023-01-29T07:54:16.728Z,6.6625
2023-01-29T07:57:16.751Z,3.9875000000000003
2023-01-29T08:01:16.922Z,4.550000000000001
2023-01-29T08:04:17.089Z,5.875
2023-01-29T08:07:17.148Z,10.4375
2023-01-29T08:11:16.101Z,5.6625
2023-01-29T08:14:17.192Z,5.137499999999999
2023-01-29T08:17:16.244Z,4.1875
2023-01-29T08:21:17.661Z,5.05
2023-01-29T08:24:16.406Z,4.475
2023-01-29T08:27:16.223Z,5.8875
2023-01-29T08:31:18.076Z,5.8
2023-01-29T08:34:17.140Z,5.775
2023-01-29T08:37:17.037Z,8.45
2023-01-29T08:41:16.099Z,6.9125
2023-01-29T08:44:16.343Z,4.025
2023-01-29T08:47:16.455Z,4.025
2023-01-29T08:51:16.594Z,7.025
2023-01-29T08:54:16.873Z,4.9624999999999995
2023-01-29T08:57:16.923Z,7.7875
2023-01-29T09:01:17.080Z,3.8625
2023-01-29T09:04:17.054Z,4.825
2023-01-29T09:07:17.273Z,6.275
2023-01-29T09:11:16.181Z,5.975
2023-01-29T09:14:16.750Z,5.35
2023-01-29T09:17:16.467Z,5.5874999999999995
2023-01-29T09:21:17.193Z,6.475
2023-01-29T09:24:17.056Z,4.475
2023-01-29T09:27:16.938Z,4.1625
2023-01-29T09:31:15.962Z,4.025
2023-01-29T09:34:16.205Z,3.6625000000000005
2023-01-29T09:37:18.186Z,3.9749999999999996
2023-01-29T09:41:28.694Z,5.574999999999999
2023-01-29T09:44:25.774Z,3.15
2023-01-29T09:47:18.809Z,3.775
2023-01-29T09:51:25.557Z,3.425
2023-01-29T09:54:22.262Z,2.8625
2023-01-29T09:57:23.663Z,3.1125
2023-01-29T10:01:23.296Z,3.9125
2023-01-29T10:05:18.062Z,5.762499999999999
2023-01-29T10:07:32.451Z,4.5
2023-01-29T10:11:30.097Z,2.925
2023-01-29T10:14:28.271Z,3.2875
2023-01-29T10:17:43.193Z,8.625
2023-01-29T10:21:37.107Z,5.9625
2023-01-29T10:24:25.207Z,3.1624999999999996
2023-01-29T10:27:17.631Z,2.3499999999999996
2023-01-29T10:31:20.258Z,13.6625
2023-01-29T10:34:25.200Z,6.675000000000001
2023-01-29T10:37:18.760Z,3.65
2023-01-29T10:41:28.711Z,4.95
2023-01-29T10:44:30.117Z,5.025
2023-01-29T10:47:30.756Z,3.3125
2023-01-29T10:51:33.577Z,3.0999999999999996
2023-01-29T10:54:29.003Z,2.675
2023-01-29T10:57:29.796Z,3.5875
2023-01-29T11:01:16.628Z,7.3625
2023-01-29T11:04:17.487Z,4.475
2023-01-29T11:07:21.025Z,4.025
2023-01-29T11:11:18.788Z,4.95
2023-01-29T11:14:23.788Z,5.925000000000001
2023-01-29T11:17:18.402Z,5.949999999999999
2023-01-29T11:21:16.896Z,6.375
2023-01-29T11:24:18.130Z,4.8125
2023-01-29T11:27:23.703Z,6.175
2023-01-29T11:31:20.021Z,5.262499999999999
2023-01-29T11:34:20.679Z,6.7875
2023-01-29T11:37:17.203Z,5.987500000000001
2023-01-29T11:41:18.928Z,5.5625
2023-01-29T11:44:20.605Z,4.475
2023-01-29T11:47:19.903Z,6.025
2023-01-29T11:51:21.918Z,6.175000000000001
2023-01-29T11:54:18.737Z,5.949999999999999
2023-01-29T11:57:27.305Z,9.8625
2023-01-29T12:01:23.661Z,6.8875
2023-01-29T12:04:21.204Z,11.175
2023-01-29T12:07:18.101Z,7.299999999999999
2023-01-29T12:11:26.446Z,11.6375
2023-01-29T12:14:29.042Z,6.4625
2023-01-29T12:17:22.560Z,9.0625
2023-01-29T12:21:26.100Z,6.6
2023-01-29T12:24:30.021Z,7.05
2023-01-29T12:27:23.493Z,5.35
2023-01-29T12:31:26.233Z,6.9375
2023-01-29T12:34:22.786Z,5.800000000000001
2023-01-29T12:37:24.015Z,4.425
2023-01-29T12:41:29.756Z,5.4125
2023-01-29T12:44:21.010Z,5.05
2023-01-29T12:47:22.854Z,18.625
2023-01-29T12:51:23.015Z,6.4125
2023-01-29T12:54:30.349Z,6.3374999999999995
2023-01-29T12:57:26.154Z,6.4625
2023-01-29T13:01:22.436Z,4.5
2023-01-29T13:04:24.966Z,5.3125
2023-01-29T13:07:19.810Z,5
2023-01-29T13:11:22.214Z,5.8500000000000005
2023-01-29T13:14:22.010Z,4.925000000000001
2023-01-29T13:17:22.657Z,4.9375
2023-01-29T13:21:19.415Z,7.199999999999999
2023-01-29T13:24:19.608Z,8.125
2023-01-29T13:27:24.088Z,6.8
2023-01-29T13:31:28.650Z,7.5
2023-01-29T13:34:23.097Z,4.875
2023-01-29T13:37:23.711Z,10.412499999999998
2023-01-29T13:41:15.895Z,5.025
2023-01-29T13:44:23.584Z,5.0625
2023-01-29T13:47:24.469Z,4.5
2023-01-29T13:51:22.316Z,4.1625
2023-01-29T13:54:20.981Z,5.675
2023-01-29T13:57:36.053Z,4.5625
2023-01-29T14:01:15.940Z,10.8875
2023-01-29T14:04:25.074Z,8.8625
2023-01-29T14:08:37.534Z,4.4625
2023-01-29T14:11:49.509Z,6.2125
2023-01-29T14:15:19.026Z,4.525
2023-01-29T14:17:19.382Z,4.6875
2023-01-29T14:21:22.023Z,5
2023-01-29T14:24:19.505Z,7.2125
2023-01-29T14:27:21.711Z,8.087499999999999
2023-01-29T14:31:36.366Z,9.5125
2023-01-29T14:34:23.028Z,6.125
2023-01-29T14:37:27.317Z,8.549999999999999
2023-01-29T14:41:26.183Z,7.800000000000001
2023-01-29T14:45:24.965Z,5.9
2023-01-29T14:47:20.204Z,11.8125
2023-01-29T14:51:18.779Z,7.325
2023-01-29T14:54:24.979Z,6.275
2023-01-29T14:57:18.124Z,7.6625
2023-01-29T15:01:24.980Z,7.8500000000000005
2023-01-29T15:04:27.063Z,6.512499999999999
2023-01-29T15:07:27.610Z,6.1000000000000005
2023-01-29T15:12:03.303Z,4.825
2023-01-29T15:14:32.044Z,6.925000000000001
2023-01-29T15:17:27.181Z,12.4
2023-01-29T15:21:18.198Z,5.6
2023-01-29T15:24:16.348Z,8.375
2023-01-29T15:27:21.963Z,6.3
2023-01-29T15:31:17.997Z,12.2625
2023-01-29T15:34:17.033Z,7.937500000000001
2023-01-29T15:37:25.668Z,10.7375
2023-01-29T15:41:23.512Z,8.850000000000001
2023-01-29T15:44:19.325Z,10.5375
2023-01-29T15:47:16.584Z,7.4625
2023-01-29T15:51:19.716Z,6.4375
2023-01-29T15:54:17.603Z,10.4625
2023-01-29T15:57:22.125Z,9.9875
2023-01-29T16:01:16.666Z,9.0625
2023-01-29T16:04:21.165Z,7.4125
2023-01-29T16:31:23.275Z,9.45
2023-01-29T16:34:24.489Z,8.575
2023-01-29T16:37:21.606Z,10.5125
2023-01-29T16:41:29.466Z,10.6875
2023-01-29T16:44:34.987Z,13.049999999999999
2023-01-29T16:47:25.644Z,10.9375
2023-01-29T16:51:24.789Z,19
2023-01-29T16:54:24.098Z,15.375
2023-01-29T16:57:23.824Z,12.1375
2023-01-29T17:01:17.710Z,11.15
2023-01-29T17:04:18.877Z,9.2125
2023-01-29T17:07:18.151Z,7.05
2023-01-29T17:11:26.507Z,6.75
2023-01-29T17:14:18.678Z,8.125
2023-01-29T17:17:18.315Z,7.15
2023-01-29T17:31:22.447Z,6.3375
2023-01-29T17:34:19.609Z,6.875
2023-01-29T17:37:29.689Z,7.687500000000001
2023-01-29T17:41:23.245Z,8.75
2023-01-29T17:44:18.315Z,7.35
2023-01-29T17:47:19.959Z,10.6
2023-01-29T17:51:27.015Z,10.425
2023-01-29T17:54:23.273Z,6.1875
2023-01-29T17:57:22.210Z,7.637499999999999
2023-01-29T18:01:36.871Z,6.6375
2023-01-29T18:04:29.320Z,10.4625
2023-01-29T18:07:45.832Z,10.5875
2023-01-29T18:12:14.867Z,9.275
2023-01-29T18:14:28.275Z,8.3375
2023-01-29T18:17:23.694Z,7.425000000000001
2023-01-29T18:31:33.943Z,7.55
2023-01-29T18:34:16.538Z,6.4375
2023-01-29T18:37:16.380Z,7.3125
2023-01-29T18:41:17.412Z,7.324999999999999
2023-01-29T18:44:19.892Z,7.837499999999999
2023-01-29T18:47:18.297Z,6.925000000000001
2023-01-29T18:51:17.276Z,7.4
2023-01-29T18:54:18.677Z,6.9125000000000005
2023-01-29T18:58:24.937Z,7.325
2023-01-29T19:01:16.606Z,7.612500000000001
2023-01-29T19:04:16.859Z,8.175
2023-01-29T19:07:17.010Z,7.9125
2023-01-29T19:11:16.720Z,13.925
2023-01-29T19:14:17.000Z,10.5
2023-01-29T19:17:16.763Z,9.1125
2023-01-29T19:21:16.217Z,10.575000000000001
2023-01-29T19:24:16.535Z,7.6499999999999995
2023-01-29T19:27:16.214Z,9.5875
2023-01-29T19:31:16.270Z,8.0625
2023-01-29T19:34:16.559Z,6.875
2023-01-29T19:37:16.536Z,7.075
2023-01-29T19:41:17.621Z,7.324999999999999
2023-01-29T19:51:42.221Z,9.2125
2023-01-29T19:54:30.616Z,11.2
2023-01-29T19:57:37.342Z,11.375
2023-01-29T20:01:18.194Z,9.425
2023-01-29T20:04:25.888Z,8.9
2023-01-29T20:07:22.088Z,9.6875
2023-01-29T20:11:22.358Z,8.1125
2023-01-29T20:14:38.327Z,6.2
2023-01-29T20:17:28.728Z,6.825
2023-01-29T20:31:38.409Z,7.0874999999999995
2023-01-29T20:34:24.252Z,7.3625
2023-01-29T20:37:22.751Z,6.9375
2023-01-29T20:41:35.860Z,6.7
2023-01-29T20:44:25.623Z,5.4125
2023-01-29T20:47:30.179Z,7.1875
2023-01-29T20:51:30.140Z,6.1125
2023-01-29T20:54:21.966Z,6.75
2023-01-29T20:57:23.152Z,5.4375
2023-01-29T21:01:22.709Z,10.0625
2023-01-29T21:04:21.568Z,11.0625
2023-01-29T21:07:18.155Z,9.2375
2023-01-29T21:11:23.659Z,10.025
2023-01-29T21:14:23.110Z,8.8
2023-01-29T21:17:20.934Z,8.4
2023-01-29T21:21:16.658Z,9.7375
2023-01-29T21:24:21.256Z,7.775
2023-01-29T21:27:17.125Z,12.349999999999998
2023-01-29T21:31:42.483Z,8.2125
2023-01-29T21:41:16.761Z,6.6625
2023-01-29T21:44:17.154Z,5.6625
2023-01-29T21:47:17.236Z,5.8375
2023-01-29T21:51:18.851Z,6.199999999999999
2023-01-29T21:54:17.318Z,6.6
2023-01-29T21:57:17.295Z,7.3375
2023-01-29T22:01:36.499Z,6.824999999999999
2023-01-29T22:04:16.666Z,5.8625
2023-01-29T22:07:16.668Z,6.300000000000001
2023-01-29T22:11:16.059Z,7.8625
2023-01-29T22:14:18.516Z,7.8375
2023-01-29T22:17:17.258Z,7.3125
2023-01-29T22:21:16.734Z,9.3625
2023-01-29T22:24:17.114Z,7.5375000000000005
2023-01-29T22:27:17.285Z,7.3125
2023-01-29T22:31:16.464Z,9.925
2023-01-29T22:34:16.845Z,9.087499999999999
2023-01-29T22:37:17.244Z,7.200000000000001
2023-01-29T22:41:16.182Z,7.55
2023-01-29T22:44:16.618Z,6.0625
2023-01-29T22:47:16.609Z,5.9625
2023-01-29T22:51:15.950Z,6.1875
2023-01-29T22:54:16.319Z,5.1875
2023-01-29T22:57:16.521Z,5.7875
2023-01-29T23:01:18.233Z,6.1375
2023-01-29T23:04:16.724Z,5.6
2023-01-29T23:07:16.718Z,4.987500000000001
2023-01-29T23:11:20.292Z,5.675000000000001
2023-01-29T23:14:17.198Z,6.125
2023-01-29T23:17:16.915Z,6.9625
2023-01-29T23:21:16.214Z,7.0875
2023-01-29T23:24:16.545Z,5.95
2023-01-29T23:27:16.538Z,6.5625
2023-01-29T23:31:16.154Z,7.375
2023-01-29T23:34:16.403Z,5.1875
2023-01-29T23:37:16.346Z,4.987500000000001
2023-01-29T23:41:16.224Z,4.6125
2023-01-29T23:44:16.474Z,4.3375
2023-01-29T23:47:16.553Z,4.4625
2023-01-29T23:51:15.774Z,5.9125
2023-01-29T23:54:17.371Z,4.55
2023-01-29T23:57:16.291Z,4.4
